Time;durP1;ratioP1;P1;durP2;ratioP2;P2;SDS_P1;SDS_P2;PMS_P1;PMS_P2;Temp;Humidity;BMP_temperature;BMP_pressure;BME280_temperature;BME280_humidity;BME280_pressure;Samples;Min_cycle;Max_cycle;Signal;HPM_P1;HPM_P2
2020/12/10 00:37:33;;;;;;;46.80;22.20;;;6.30;99.90;;;;;;5251435;22;20442;-89
2020/12/10 00:39:59;;;;;;;46.33;21.70;;;6.20;99.90;;;;;;5077259;28;20520;-91
2020/12/10 00:42:26;;;;;;;46.37;22.70;;;6.30;99.90;;;;;;5086457;28;20454;-91
2020/12/10 00:44:52;;;;;;;55.70;25.43;;;6.30;99.90;;;;;;5085562;28;20745;-91
2020/12/10 00:47:19;;;;;;;55.47;25.73;;;6.40;99.90;;;;;;5085936;28;20473;-90
2020/12/10 00:49:46;;;;;;;62.67;26.83;;;6.40;99.90;;;;;;5083734;28;20454;-91
2020/12/10 00:52:15;;;;;;;60.97;28.03;;;6.40;99.90;;;;;;5079375;28;20443;-91
2020/12/10 00:54:43;;;;;;;57.53;27.63;;;6.40;99.90;;;;;;5078482;28;20211;-91
2020/12/10 00:57:10;;;;;;;57.27;27.50;;;6.40;99.90;;;;;;5078462;28;20212;-91
2020/12/10 00:59:36;;;;;;;62.20;28.33;;;6.50;99.90;;;;;;5078271;28;20474;-91
2020/12/10 01:02:03;;;;;;;59.90;28.13;;;6.50;99.90;;;;;;5077827;28;20454;-91
2020/12/10 01:04:31;;;;;;;56.73;27.00;;;6.50;99.90;;;;;;5078093;28;20491;-91
2020/12/10 01:06:58;;;;;;;58.93;27.13;;;6.50;99.90;;;;;;5078069;28;20503;-91
2020/12/10 01:09:24;;;;;;;59.40;27.87;;;6.50;99.90;;;;;;5077687;28;20455;-91
2020/12/10 01:11:51;;;;;;;57.67;27.53;;;6.40;99.90;;;;;;5067337;28;20484;-90
2020/12/10 01:14:19;;;;;;;57.40;27.67;;;6.40;99.90;;;;;;5076049;28;20450;-90
2020/12/10 01:16:46;;;;;;;57.27;27.33;;;6.40;99.90;;;;;;5078010;28;20455;-91
2020/12/10 01:19:16;;;;;;;58.17;27.53;;;6.40;99.90;;;;;;5077001;28;20536;-91
2020/12/10 01:21:43;;;;;;;53.30;25.80;;;6.30;99.90;;;;;;5079129;28;20457;-91
2020/12/10 01:24:11;;;;;;;53.90;26.87;;;6.30;99.90;;;;;;5077559;28;20460;-90
2020/12/10 01:26:37;;;;;;;52.37;25.10;;;6.30;99.90;;;;;;5077734;28;20454;-91
2020/12/10 01:29:05;;;;;;;53.20;26.57;;;6.20;99.90;;;;;;5077778;28;20533;-90
2020/12/10 01:31:32;;;;;;;52.97;26.60;;;6.30;99.90;;;;;;5086207;28;20459;-90
2020/12/10 01:33:59;;;;;;;51.10;25.53;;;6.40;99.90;;;;;;5094194;28;20446;-90
2020/12/10 01:36:28;;;;;;;48.90;24.17;;;6.40;99.90;;;;;;5097064;28;20436;-91
2020/12/10 01:38:57;;;;;;;50.77;26.37;;;6.40;99.90;;;;;;5097220;28;20470;-90
2020/12/10 01:41:28;;;;;;;45.33;24.10;;;6.40;99.90;;;;;;5096830;28;20477;-91
2020/12/10 01:44:01;;;;;;;44.90;23.80;;;6.40;99.90;;;;;;5080744;28;20591;-90
2020/12/10 01:46:28;;;;;;;49.63;24.87;;;6.30;99.90;;;;;;5077152;28;20447;-90
2020/12/10 01:48:54;;;;;;;49.70;24.97;;;6.30;99.90;;;;;;5077119;28;20454;-90
2020/12/10 01:51:21;;;;;;;43.90;24.43;;;6.30;99.90;;;;;;5076604;28;20453;-91
2020/12/10 01:53:47;;;;;;;45.13;23.57;;;6.30;99.90;;;;;;5076971;28;20446;-91
2020/12/10 01:56:15;;;;;;;48.13;24.90;;;6.20;99.90;;;;;;5079953;28;20453;-91
2020/12/10 01:58:42;;;;;;;45.57;23.70;;;6.20;99.90;;;;;;5076669;28;20447;-89
2020/12/10 02:01:08;;;;;;;48.17;24.53;;;6.30;99.90;;;;;;5075483;28;20512;-90
2020/12/10 02:03:36;;;;;;;48.47;24.90;;;6.20;99.90;;;;;;5076257;28;20454;-90
2020/12/10 02:06:02;;;;;;;44.30;23.83;;;6.20;99.90;;;;;;5076025;28;20464;-91
2020/12/10 02:08:29;;;;;;;46.93;23.80;;;6.30;99.90;;;;;;5076100;28;20983;-90
2020/12/10 02:10:55;;;;;;;50.70;25.57;;;6.30;99.90;;;;;;5063833;28;20460;-91
2020/12/10 02:13:22;;;;;;;50.17;26.47;;;6.30;99.90;;;;;;5076448;28;20487;-91
2020/12/10 02:15:48;;;;;;;46.87;24.83;;;6.20;99.90;;;;;;5076574;28;20487;-91
2020/12/10 02:18:15;;;;;;;48.13;24.33;;;6.30;99.90;;;;;;5077811;28;20490;-90
2020/12/10 02:20:43;;;;;;;47.00;25.57;;;6.30;99.90;;;;;;5076471;28;20489;-91
2020/12/10 02:23:12;;;;;;;46.63;24.77;;;6.30;99.90;;;;;;5077189;28;20504;-91
2020/12/10 02:25:39;;;;;;;45.93;23.53;;;6.30;99.90;;;;;;5080588;28;20461;-91
2020/12/10 02:28:09;;;;;;;48.47;26.13;;;6.20;99.90;;;;;;5085663;28;20541;-90
2020/12/10 02:30:36;;;;;;;53.53;26.57;;;6.10;99.90;;;;;;5078322;28;20548;-91
2020/12/10 02:33:05;;;;;;;42.20;23.77;;;6.20;99.90;;;;;;5078911;28;20554;-91
2020/12/10 02:35:42;;;;;;;43.03;23.60;;;6.20;99.90;;;;;;5092923;28;20450;-90
2020/12/10 02:38:11;;;;;;;42.57;23.47;;;6.20;99.90;;;;;;5104224;28;20544;-91
2020/12/10 02:40:40;;;;;;;39.40;22.60;;;6.30;99.90;;;;;;5115226;28;20484;-90
2020/12/10 02:43:07;;;;;;;43.07;23.23;;;6.20;99.90;;;;;;5104369;28;20536;-91
2020/12/10 02:45:34;;;;;;;39.53;22.80;;;6.20;99.90;;;;;;5098311;28;20459;-91
2020/12/10 02:48:00;;;;;;;40.37;22.97;;;6.10;99.90;;;;;;5101867;28;21043;-90
2020/12/10 02:50:27;;;;;;;41.83;23.67;;;6.10;99.90;;;;;;5100969;28;20974;-91
2020/12/10 02:52:54;;;;;;;42.03;24.33;;;6.10;99.90;;;;;;5098552;28;20445;-90
2020/12/10 02:55:21;;;;;;;43.27;23.23;;;6.10;99.90;;;;;;5097756;28;20452;-90
2020/12/10 02:57:47;;;;;;;45.13;23.87;;;6.20;99.90;;;;;;5097509;28;20461;-90
2020/12/10 03:00:14;;;;;;;42.23;23.40;;;6.20;99.90;;;;;;5090284;28;20478;-91
2020/12/10 03:02:40;;;;;;;42.37;22.83;;;6.20;99.90;;;;;;5097729;28;20457;-90
2020/12/10 03:05:08;;;;;;;42.73;24.17;;;6.30;99.90;;;;;;5098254;28;20453;-90
2020/12/10 03:07:39;;;;;;;46.40;24.43;;;6.20;99.90;;;;;;5105247;28;20453;-90
2020/12/10 03:10:05;;;;;;;51.60;24.77;;;6.10;99.90;;;;;;5101605;28;20533;-92
2020/12/10 03:12:33;;;;;;;43.77;23.70;;;6.00;99.90;;;;;;5099285;28;20472;-90
2020/12/10 03:15:00;;;;;;;44.43;23.37;;;6.10;99.90;;;;;;5100852;28;20457;-91
2020/12/10 03:17:26;;;;;;;44.43;23.20;;;6.10;99.90;;;;;;5097136;28;20465;-91
2020/12/10 03:19:53;;;;;;;37.40;20.60;;;6.10;99.90;;;;;;5095614;28;20480;-90
2020/12/10 03:22:28;;;;;;;38.83;21.73;;;6.00;99.90;;;;;;5098382;28;20449;-91
2020/12/10 03:24:55;;;;;;;37.53;21.87;;;6.00;99.90;;;;;;5098854;28;20464;-90
2020/12/10 03:27:21;;;;;;;41.20;21.97;;;6.10;99.90;;;;;;5108910;28;20535;-91
2020/12/10 03:29:49;;;;;;;39.90;22.47;;;6.00;99.90;;;;;;5114402;28;20463;-91
2020/12/10 03:32:15;;;;;;;38.57;22.60;;;6.00;99.90;;;;;;5111815;28;20469;-90
2020/12/10 03:34:41;;;;;;;37.63;21.93;;;6.00;99.90;;;;;;5108058;28;20453;-91
2020/12/10 03:37:08;;;;;;;41.27;21.80;;;5.90;99.90;;;;;;5107261;28;20518;-91
2020/12/10 03:39:36;;;;;;;40.97;21.13;;;5.80;99.90;;;;;;5105904;28;20507;-90
2020/12/10 03:42:03;;;;;;;35.57;20.73;;;5.80;99.90;;;;;;5078657;28;20477;-91
2020/12/10 03:44:29;;;;;;;34.60;20.47;;;5.80;99.90;;;;;;5091550;28;20461;-91
2020/12/10 03:46:56;;;;;;;33.33;19.67;;;5.80;99.90;;;;;;5096500;28;20947;-90
2020/12/10 03:49:23;;;;;;;34.73;19.60;;;5.80;99.90;;;;;;5096021;28;20444;-91
2020/12/10 03:51:49;;;;;;;36.03;21.23;;;5.70;99.90;;;;;;5096514;28;20859;-91
2020/12/10 03:54:16;;;;;;;34.60;20.20;;;5.60;99.90;;;;;;5096127;28;20458;-91
2020/12/10 03:56:43;;;;;;;34.80;20.67;;;5.60;99.90;;;;;;5096575;28;20453;-91
2020/12/10 03:59:09;;;;;;;30.87;19.23;;;5.60;99.90;;;;;;5096474;28;20536;-91
2020/12/10 04:01:35;;;;;;;33.00;19.17;;;5.70;99.90;;;;;;5096791;28;20490;-90
2020/12/10 04:04:06;;;;;;;31.93;18.10;;;5.70;99.90;;;;;;5105267;28;20471;-91
2020/12/10 04:06:33;;;;;;;31.60;19.87;;;5.70;99.90;;;;;;5098888;28;20456;-90
2020/12/10 04:09:00;;;;;;;29.73;18.63;;;5.70;99.90;;;;;;5095781;28;20465;-91
2020/12/10 04:11:26;;;;;;;30.73;18.00;;;5.80;99.90;;;;;;5096399;28;20556;-89
2020/12/10 04:13:53;;;;;;;28.53;18.00;;;5.80;99.90;;;;;;5096734;28;20449;-91
2020/12/10 04:16:19;;;;;;;27.70;17.80;;;5.80;99.90;;;;;;5096196;28;20485;-91
2020/12/10 04:18:46;;;;;;;30.13;18.33;;;5.90;99.90;;;;;;5089840;28;21099;-90
2020/12/10 04:21:13;;;;;;;30.43;17.37;;;5.90;99.90;;;;;;5098031;28;20492;-91
2020/12/10 04:23:40;;;;;;;34.13;18.50;;;5.80;99.90;;;;;;5106518;28;20523;-91
2020/12/10 04:26:07;;;;;;;27.77;17.33;;;5.70;99.90;;;;;;5116120;28;20543;-91
2020/12/10 04:28:33;;;;;;;27.87;17.40;;;5.70;99.90;;;;;;5116477;28;20449;-91
2020/12/10 04:31:00;;;;;;;30.17;17.07;;;5.80;99.90;;;;;;5115498;28;20456;-91
2020/12/10 04:33:26;;;;;;;27.93;17.60;;;5.70;99.90;;;;;;5107491;28;20452;-90
2020/12/10 04:35:53;;;;;;;26.57;16.83;;;5.60;99.90;;;;;;5099969;28;20464;-91
2020/12/10 04:38:20;;;;;;;27.80;16.47;;;5.60;99.90;;;;;;5100451;28;20575;-91
2020/12/10 04:40:47;;;;;;;27.40;16.70;;;5.60;99.90;;;;;;5099477;28;20490;-91
2020/12/10 04:43:14;;;;;;;28.23;17.00;;;5.60;99.90;;;;;;5099399;28;20544;-91
2020/12/10 04:45:41;;;;;;;26.23;17.30;;;5.70;99.90;;;;;;5094601;28;20471;-91
2020/12/10 04:48:07;;;;;;;26.00;16.60;;;5.70;99.90;;;;;;5098967;28;20465;-91
2020/12/10 04:50:37;;;;;;;28.83;16.60;;;5.80;99.90;;;;;;5101740;28;20456;-91
2020/12/10 04:53:04;;;;;;;26.93;16.80;;;5.70;99.90;;;;;;5099383;28;21017;-91
2020/12/10 04:55:32;;;;;;;30.50;17.47;;;5.70;99.90;;;;;;5098869;28;20509;-91
2020/12/10 04:57:59;;;;;;;29.37;17.00;;;5.70;99.90;;;;;;5098341;28;20456;-91
2020/12/10 05:00:26;;;;;;;27.27;17.53;;;5.70;99.90;;;;;;5098928;28;20479;-90
2020/12/10 05:02:53;;;;;;;27.30;16.90;;;5.70;99.90;;;;;;5099300;28;20455;-91
2020/12/10 05:05:27;;;;;;;28.73;17.73;;;5.70;99.90;;;;;;5100676;28;20453;-91
2020/12/10 05:07:55;;;;;;;29.90;17.23;;;5.70;99.90;;;;;;5099488;28;20556;-91
2020/12/10 05:10:22;;;;;;;29.30;18.10;;;5.70;99.90;;;;;;5100139;28;21030;-90
2020/12/10 05:12:49;;;;;;;26.60;16.13;;;5.60;99.90;;;;;;5098614;28;20997;-90
2020/12/10 05:15:19;;;;;;;29.27;17.00;;;5.60;99.90;;;;;;5099308;28;20521;-90
2020/12/10 05:17:45;;;;;;;26.47;16.03;;;5.70;99.90;;;;;;5098657;28;20469;-91
2020/12/10 05:20:12;;;;;;;31.00;17.17;;;5.70;99.90;;;;;;5097631;28;20540;-91
2020/12/10 05:22:45;;;;;;;28.47;16.40;;;5.70;99.90;;;;;;5099559;28;20536;-91
2020/12/10 05:25:12;;;;;;;28.23;16.57;;;5.70;99.90;;;;;;5099743;28;20927;-91
2020/12/10 05:27:38;;;;;;;30.43;17.20;;;5.70;99.90;;;;;;5099058;28;20448;-91
2020/12/10 05:30:06;;;;;;;31.00;16.83;;;5.70;99.90;;;;;;5097984;28;20536;-91
2020/12/10 05:32:37;;;;;;;31.27;17.57;;;5.80;99.90;;;;;;5098021;28;20463;-91
2020/12/10 05:35:19;;;;;;;29.63;16.60;;;5.80;99.90;;;;;;5096120;28;20502;-91
2020/12/10 05:37:46;;;;;;;29.60;17.13;;;5.80;99.90;;;;;;5077333;28;20493;-90
2020/12/10 05:40:13;;;;;;;30.43;17.87;;;5.80;99.90;;;;;;5091916;28;20541;-91
2020/12/10 05:42:41;;;;;;;30.17;17.03;;;5.80;99.90;;;;;;5098643;28;20479;-91
2020/12/10 05:45:14;;;;;;;30.37;16.93;;;5.80;99.90;;;;;;5097359;28;20457;-91
2020/12/10 05:47:44;;;;;;;32.67;18.03;;;5.80;99.90;;;;;;5097662;28;20468;-91
2020/12/10 05:50:12;;;;;;;30.23;18.00;;;5.70;99.90;;;;;;5097084;28;20452;-91
2020/12/10 05:52:44;;;;;;;31.87;17.80;;;5.60;99.90;;;;;;5097920;28;20854;-91
2020/12/10 05:55:11;;;;;;;31.87;18.37;;;5.70;99.90;;;;;;5078684;28;20461;-90
2020/12/10 05:57:42;;;;;;;34.37;18.63;;;5.60;99.90;;;;;;5092960;28;20445;-91
2020/12/10 06:00:09;;;;;;;31.30;17.63;;;5.60;99.90;;;;;;5089285;28;20485;-91
2020/12/10 06:02:40;;;;;;;32.30;18.80;;;5.60;99.90;;;;;;5097057;28;20457;-91
2020/12/10 06:05:06;;;;;;;36.40;18.93;;;5.60;99.90;;;;;;5099600;28;20479;-91
2020/12/10 06:07:32;;;;;;;33.90;19.03;;;5.60;99.90;;;;;;5099130;28;20460;-91
2020/12/10 06:09:59;;;;;;;39.67;19.73;;;5.60;99.90;;;;;;5098552;28;20457;-91
2020/12/10 06:12:26;;;;;;;34.50;19.30;;;5.60;99.90;;;;;;5101892;28;20449;-91
2020/12/10 06:14:54;;;;;;;38.77;20.00;;;5.50;99.90;;;;;;5112569;28;20457;-91
2020/12/10 06:17:20;;;;;;;35.97;20.20;;;5.60;99.90;;;;;;5112114;28;20456;-91
2020/12/10 06:19:48;;;;;;;33.47;18.60;;;5.70;99.90;;;;;;5111452;28;20497;-92
2020/12/10 06:22:25;;;;;;;35.80;19.10;;;5.60;99.90;;;;;;5113047;28;20480;-90
2020/12/10 06:24:52;;;;;;;41.30;20.27;;;5.60;99.90;;;;;;5111959;28;20457;-91
2020/12/10 06:27:27;;;;;;;39.77;19.87;;;5.50;99.90;;;;;;5102961;28;20482;-90
2020/12/10 06:30:18;;;;;;;45.60;21.17;;;5.40;99.90;;;;;;5105161;28;20447;-91
2020/12/10 06:32:46;;;;;;;40.37;20.67;;;5.40;99.90;;;;;;5074917;28;20484;-91
2020/12/10 06:35:28;;;;;;;41.43;21.70;;;5.40;99.90;;;;;;5078499;28;20457;-92
2020/12/10 06:37:55;;;;;;;41.53;20.43;;;5.40;99.90;;;;;;5115441;22;20487;-91
2020/12/10 06:40:35;;;;;;;45.47;22.40;;;5.50;99.90;;;;;;5118454;28;20495;-91
2020/12/10 06:43:03;;;;;;;47.33;23.10;;;5.50;99.90;;;;;;5124242;27;20466;-90
2020/12/10 06:45:34;;;;;;;50.20;22.87;;;5.50;99.90;;;;;;5101317;27;20456;-91
2020/12/10 06:48:02;;;;;;;49.13;23.33;;;5.60;99.90;;;;;;5137200;27;20451;-91
2020/12/10 06:50:31;;;;;;;51.33;22.77;;;5.60;99.90;;;;;;5126593;28;20487;-91
2020/12/10 06:53:13;;;;;;;48.27;22.60;;;5.60;99.90;;;;;;5124379;28;20448;-91
2020/12/10 06:56:03;;;;;;;45.80;23.33;;;5.60;99.90;;;;;;5118701;28;20443;-92
2020/12/10 06:58:57;;;;;;;46.37;22.73;;;5.60;99.90;;;;;;5118318;28;20448;-92
2020/12/10 07:01:28;;;;;;;39.13;19.90;;;5.60;99.90;;;;;;5126364;27;20484;-91
2020/12/10 07:04:21;;;;;;;41.27;20.90;;;5.60;99.90;;;;;;5134531;27;20455;-91
2020/12/10 07:07:13;;;;;;;37.97;19.90;;;5.60;99.90;;;;;;5098322;28;20444;-92
2020/12/10 07:09:52;;;;;;;37.53;18.93;;;5.60;99.90;;;;;;5111410;28;20573;-91
2020/12/10 07:12:20;;;;;;;33.40;17.50;;;5.70;99.90;;;;;;5119169;28;20517;-91
2020/12/10 07:14:50;;;;;;;36.40;19.20;;;5.70;99.90;;;;;;5138600;27;20969;-91
2020/12/10 07:17:17;;;;;;;36.10;18.57;;;5.60;99.90;;;;;;5136734;27;20464;-91
2020/12/10 07:19:43;;;;;;;35.33;17.40;;;5.60;99.90;;;;;;5141867;27;20459;-90
2020/12/10 07:22:11;;;;;;;36.30;18.43;;;5.70;99.90;;;;;;5139959;27;20493;-92
2020/12/10 07:24:37;;;;;;;35.17;17.00;;;5.60;99.90;;;;;;5126370;28;20470;-91
2020/12/10 07:27:04;;;;;;;32.23;17.50;;;5.60;99.90;;;;;;5103832;28;20480;-91
2020/12/10 07:29:30;;;;;;;32.77;16.97;;;5.60;99.90;;;;;;5137100;28;20476;-91
2020/12/10 07:31:57;;;;;;;33.30;17.43;;;5.50;99.90;;;;;;5143283;27;20442;-91
2020/12/10 07:34:23;;;;;;;32.17;16.23;;;5.60;99.90;;;;;;5141057;28;20462;-91
2020/12/10 07:36:51;;;;;;;32.87;17.40;;;5.60;99.90;;;;;;5144280;27;20448;-91
2020/12/10 07:39:28;;;;;;;30.63;17.10;;;5.60;99.90;;;;;;5156876;28;20487;-91
2020/12/10 07:41:54;;;;;;;30.20;17.30;;;5.70;99.90;;;;;;5148308;28;20493;-91
2020/12/10 07:44:25;;;;;;;33.67;17.87;;;5.70;99.90;;;;;;5138186;28;20953;-91
2020/12/10 07:46:52;;;;;;;33.43;18.03;;;5.70;99.90;;;;;;5125258;28;20456;-91
2020/12/10 07:49:24;;;;;;;34.83;19.43;;;5.70;99.90;;;;;;5116365;28;20603;-91
2020/12/10 07:51:51;;;;;;;34.73;19.87;;;5.50;99.90;;;;;;5117685;28;20944;-91
2020/12/10 07:54:18;;;;;;;34.77;19.13;;;5.50;99.90;;;;;;5117460;28;20448;-91
2020/12/10 07:56:46;;;;;;;36.77;20.03;;;5.60;99.90;;;;;;5117354;28;20489;-91
2020/12/10 07:59:16;;;;;;;39.23;20.37;;;5.60;99.90;;;;;;5126760;28;20448;-91
2020/12/10 08:01:48;;;;;;;36.20;19.33;;;5.50;99.90;;;;;;5133133;28;20483;-91
2020/12/10 08:04:18;;;;;;;40.03;20.27;;;5.50;99.90;;;;;;5139596;27;20451;-91
2020/12/10 08:06:46;;;;;;;39.13;21.10;;;5.40;99.90;;;;;;5153501;27;20450;-92
2020/12/10 08:09:13;;;;;;;35.20;19.73;;;5.50;99.90;;;;;;5140996;27;20501;-91
2020/12/10 08:11:51;;;;;;;40.70;21.20;;;5.50;99.90;;;;;;5131705;28;20523;-91
2020/12/10 08:14:25;;;;;;;39.53;20.37;;;5.50;99.90;;;;;;5138723;27;20467;-91
2020/12/10 08:16:52;;;;;;;40.63;20.37;;;5.50;99.90;;;;;;5136335;27;20443;-92
2020/12/10 08:19:20;;;;;;;36.20;20.07;;;5.60;99.90;;;;;;5127219;28;20448;-91
2020/12/10 08:21:50;;;;;;;35.53;20.13;;;5.50;99.90;;;;;;5129524;28;20491;-92
2020/12/10 08:24:35;;;;;;;40.97;21.30;;;5.50;99.90;;;;;;5134003;28;20497;-91
2020/12/10 08:27:15;;;;;;;39.87;21.83;;;5.50;99.90;;;;;;5129769;27;20459;-91
2020/12/10 08:30:00;;;;;;;41.67;20.27;;;5.50;99.90;;;;;;5123233;28;20451;-91
2020/12/10 08:32:26;;;;;;;42.03;21.43;;;5.60;99.90;;;;;;5130968;28;20535;-89
2020/12/10 08:35:03;;;;;;;43.30;22.73;;;5.50;99.90;;;;;;5132666;28;20451;-90
2020/12/10 08:37:38;;;;;;;42.23;21.33;;;5.60;99.90;;;;;;5135037;27;20506;-91
2020/12/10 08:40:05;;;;;;;45.07;23.30;;;5.60;99.90;;;;;;5136258;28;20455;-90
2020/12/10 08:42:32;;;;;;;45.63;22.27;;;5.60;99.90;;;;;;5134831;28;20491;-91
2020/12/10 08:44:59;;;;;;;48.83;23.40;;;5.60;99.90;;;;;;5134535;28;20444;-90
2020/12/10 08:47:27;;;;;;;49.77;24.43;;;5.60;99.90;;;;;;5134264;28;20520;-90
2020/12/10 08:50:21;;;;;;;56.73;25.13;;;5.60;99.90;;;;;;5135679;28;20447;-91
2020/12/10 08:52:49;;;;;;;46.43;24.10;;;5.50;99.90;;;;;;5142732;27;20481;-89
2020/12/10 08:55:15;;;;;;;43.93;22.87;;;5.50;99.90;;;;;;5123384;28;20464;-91
2020/12/10 08:57:50;;;;;;;49.97;24.30;;;5.50;99.90;;;;;;5142123;27;20462;-91
2020/12/10 09:00:19;;;;;;;47.07;23.30;;;5.40;99.90;;;;;;5141060;27;20439;-91
2020/12/10 09:02:58;;;;;;;45.60;23.03;;;5.40;99.90;;;;;;5130496;28;20465;-90
2020/12/10 09:05:25;;;;;;;47.30;22.60;;;5.40;99.90;;;;;;5127672;28;20452;-90
2020/12/10 09:07:53;;;;;;;50.30;24.70;;;5.40;99.90;;;;;;5129500;28;20573;-90
2020/12/10 09:10:20;;;;;;;43.90;23.23;;;5.40;99.90;;;;;;5136338;27;20807;-90
2020/12/10 09:12:46;;;;;;;47.43;23.70;;;5.40;99.90;;;;;;5129865;28;20440;-91
2020/12/10 09:15:14;;;;;;;43.97;21.67;;;5.40;99.90;;;;;;5133256;28;20448;-89
2020/12/10 09:17:40;;;;;;;42.63;21.20;;;5.40;99.90;;;;;;5133730;28;20492;-91
2020/12/10 09:20:07;;;;;;;42.27;22.43;;;5.40;99.90;;;;;;5130619;28;20458;-90
2020/12/10 09:22:33;;;;;;;40.33;22.57;;;5.60;99.90;;;;;;5130879;28;20759;-89
2020/12/10 09:24:59;;;;;;;37.60;21.83;;;5.60;99.90;;;;;;5138675;28;20481;-91
2020/12/10 09:27:27;;;;;;;43.00;22.93;;;5.60;99.90;;;;;;5137619;28;20462;-90
2020/12/10 09:29:53;;;;;;;40.00;21.17;;;5.60;99.90;;;;;;5138664;28;20463;-91
2020/12/10 09:32:21;;;;;;;35.77;19.97;;;5.50;99.90;;;;;;5138148;28;20452;-91
2020/12/10 09:34:49;;;;;;;38.47;20.37;;;5.50;99.90;;;;;;5133723;28;20542;-90
2020/12/10 09:37:19;;;;;;;35.53;19.27;;;5.50;99.90;;;;;;5125655;28;20802;-91
2020/12/10 09:39:50;;;;;;;36.07;19.10;;;5.50;99.90;;;;;;5127342;28;20480;-92
2020/12/10 09:42:17;;;;;;;38.10;21.03;;;5.50;99.90;;;;;;5135403;28;20492;-92
2020/12/10 09:47:53;;;;;;;35.97;19.17;;;5.50;99.90;;;;;;5135936;28;20440;-90
2020/12/10 09:50:26;;;;;;;36.20;20.63;;;5.60;99.90;;;;;;5137959;28;20463;-91
2020/12/10 09:53:05;;;;;;;34.57;20.17;;;5.70;99.90;;;;;;5138180;28;20444;-88
2020/12/10 09:58:20;;;;;;;38.43;20.07;;;5.70;99.90;;;;;;5137256;28;20435;-89
2020/12/10 10:00:49;;;;;;;39.70;20.30;;;5.70;99.90;;;;;;5137414;28;20540;-90
2020/12/10 10:03:17;;;;;;;35.50;20.17;;;5.80;99.90;;;;;;5150958;27;20440;-90
2020/12/10 10:05:44;;;;;;;33.20;20.20;;;5.80;99.90;;;;;;5150515;27;20523;-90
2020/12/10 10:08:11;;;;;;;37.87;19.20;;;5.80;99.90;;;;;;5145646;27;20455;-89
2020/12/10 10:10:37;;;;;;;39.43;22.00;;;5.70;99.90;;;;;;5135761;28;20467;-90
2020/12/10 10:13:04;;;;;;;38.53;20.00;;;5.70;99.90;;;;;;5135730;28;20444;-90
2020/12/10 10:15:31;;;;;;;38.80;21.83;;;5.70;99.90;;;;;;5136610;28;20451;-89
2020/12/10 10:17:57;;;;;;;40.57;23.23;;;5.80;99.90;;;;;;5136551;28;20474;-90
2020/12/10 10:20:25;;;;;;;40.53;21.77;;;5.90;99.90;;;;;;5137187;28;20454;-90
2020/12/10 10:22:52;;;;;;;42.00;22.63;;;5.90;99.90;;;;;;5135896;28;20473;-91
2020/12/10 10:25:18;;;;;;;48.00;24.10;;;5.90;99.90;;;;;;5135527;28;20456;-90
2020/12/10 10:27:46;;;;;;;42.03;22.53;;;5.90;99.90;;;;;;5133509;28;20507;-90
2020/12/10 10:30:12;;;;;;;39.93;22.90;;;5.80;99.90;;;;;;5131665;28;20508;-91
2020/12/10 10:32:39;;;;;;;42.23;22.20;;;5.80;99.90;;;;;;5135491;28;20508;-93
2020/12/10 10:35:05;;;;;;;39.87;22.67;;;5.80;99.90;;;;;;5133525;28;20468;-91
2020/12/10 10:37:33;;;;;;;42.67;22.97;;;5.80;99.90;;;;;;5133660;28;21021;-92
2020/12/10 10:40:00;;;;;;;40.67;22.67;;;5.90;99.90;;;;;;5135198;28;20443;-91
2020/12/10 10:42:27;;;;;;;39.63;22.97;;;5.90;99.90;;;;;;5133086;28;20479;-91
2020/12/10 10:44:53;;;;;;;44.10;23.07;;;5.90;99.90;;;;;;5133782;28;20451;-90
2020/12/10 10:47:20;;;;;;;43.73;22.37;;;5.90;99.90;;;;;;5133037;28;20456;-90
2020/12/10 10:49:46;;;;;;;41.70;20.93;;;5.90;99.90;;;;;;5132514;28;20452;-90
2020/12/10 10:52:12;;;;;;;38.57;21.77;;;6.00;99.90;;;;;;5132033;28;20784;-89
2020/12/10 10:54:40;;;;;;;43.27;23.67;;;6.10;99.90;;;;;;5132692;28;20456;-91
2020/12/10 10:57:06;;;;;;;46.43;23.80;;;6.00;99.90;;;;;;5128108;27;20521;-89
2020/12/10 10:59:33;;;;;;;43.53;22.93;;;6.00;99.90;;;;;;5136181;27;20460;-91
2020/12/10 11:02:02;;;;;;;48.20;24.67;;;6.00;99.90;;;;;;5127879;28;20488;-91
2020/12/10 11:04:28;;;;;;;45.03;24.07;;;6.10;99.90;;;;;;5122713;28;20468;-91
2020/12/10 11:06:55;;;;;;;49.20;24.17;;;6.00;99.90;;;;;;5126171;28;20460;-91
2020/12/10 11:09:21;;;;;;;50.43;25.93;;;6.00;99.90;;;;;;5143972;27;20431;-92
2020/12/10 11:11:53;;;;;;;51.33;26.10;;;6.00;99.90;;;;;;5139456;27;20515;-91
2020/12/10 11:14:20;;;;;;;48.10;26.07;;;5.90;99.90;;;;;;5117184;28;20440;-89
2020/12/10 11:16:48;;;;;;;54.13;25.97;;;5.90;99.90;;;;;;5129602;28;20458;-92
2020/12/10 11:19:14;;;;;;;49.73;26.30;;;5.90;99.90;;;;;;5133567;28;20448;-92
2020/12/10 11:21:43;;;;;;;52.33;25.57;;;5.90;99.90;;;;;;5147459;27;20469;-93
2020/12/10 11:24:10;;;;;;;44.27;23.73;;;5.80;99.90;;;;;;5155502;28;20474;-91
2020/12/10 11:26:37;;;;;;;46.10;23.63;;;5.80;99.90;;;;;;5139768;28;20507;-91
2020/12/10 11:29:05;;;;;;;48.27;23.57;;;5.90;99.90;;;;;;5133636;28;20482;-92
2020/12/10 11:31:32;;;;;;;48.97;25.73;;;5.80;99.90;;;;;;5133888;28;20444;-92
2020/12/10 11:33:58;;;;;;;47.23;24.43;;;5.90;99.90;;;;;;5125178;28;20466;-93
2020/12/10 11:36:25;;;;;;;41.40;22.50;;;5.90;99.90;;;;;;5136948;28;20774;-93
2020/12/10 11:38:52;;;;;;;44.47;23.90;;;6.00;99.90;;;;;;5154480;27;20506;-93
2020/12/10 11:41:20;;;;;;;46.30;24.87;;;6.10;99.90;;;;;;5146060;27;20500;-91
2020/12/10 11:43:47;;;;;;;47.20;25.57;;;6.10;99.90;;;;;;5139315;28;20456;-92
2020/12/10 11:46:15;;;;;;;47.40;24.80;;;6.20;99.90;;;;;;5137114;28;20451;-92
2020/12/10 11:48:41;;;;;;;49.90;25.87;;;6.10;99.90;;;;;;5138953;28;20454;-92
2020/12/10 11:51:08;;;;;;;57.07;28.13;;;6.10;99.90;;;;;;5136838;28;20462;-92
2020/12/10 11:53:35;;;;;;;51.73;26.40;;;6.00;99.90;;;;;;5137069;28;20444;-92
2020/12/10 11:56:03;;;;;;;55.47;26.93;;;5.90;99.90;;;;;;5141015;27;20451;-91
2020/12/10 11:58:31;;;;;;;57.07;26.53;;;5.90;99.90;;;;;;5154426;27;20550;-91
2020/12/10 12:00:58;;;;;;;55.37;26.47;;;6.00;99.90;;;;;;5147245;27;21046;-91
2020/12/10 12:03:25;;;;;;;50.37;26.17;;;5.90;99.90;;;;;;5135854;28;20521;-91
2020/12/10 12:05:51;;;;;;;54.17;27.17;;;5.90;99.90;;;;;;5130102;28;20519;-92
2020/12/10 12:08:18;;;;;;;53.33;25.97;;;6.00;99.90;;;;;;5136101;28;20456;-92
2020/12/10 12:10:44;;;;;;;50.83;25.77;;;6.10;99.90;;;;;;5136130;28;20512;-91
2020/12/10 12:13:11;;;;;;;54.77;26.33;;;6.10;99.90;;;;;;5136783;28;20452;-92
2020/12/10 12:15:37;;;;;;;54.57;27.53;;;6.00;99.90;;;;;;5136408;27;20452;-91
2020/12/10 12:18:03;;;;;;;55.73;27.60;;;6.00;99.90;;;;;;5136338;28;20443;-91
2020/12/10 12:20:32;;;;;;;53.83;26.00;;;6.00;99.90;;;;;;5139856;27;20436;-91
2020/12/10 12:22:59;;;;;;;53.93;26.40;;;6.00;99.90;;;;;;5139726;27;20519;-92
2020/12/10 12:25:25;;;;;;;58.40;28.20;;;5.90;99.90;;;;;;5137620;27;20477;-92
2020/12/10 12:27:51;;;;;;;52.43;26.17;;;5.90;99.90;;;;;;5135754;28;20444;-92
2020/12/10 12:30:18;;;;;;;53.27;25.07;;;5.90;99.90;;;;;;5154714;27;20448;-90
2020/12/10 12:32:44;;;;;;;52.70;26.00;;;5.90;99.90;;;;;;5156378;27;20451;-91
2020/12/10 12:35:10;;;;;;;54.77;26.33;;;6.00;99.90;;;;;;5155831;27;20446;-91
2020/12/10 12:37:38;;;;;;;47.90;24.37;;;6.00;99.90;;;;;;5154590;27;20488;-90
2020/12/10 12:40:05;;;;;;;49.87;25.97;;;6.00;99.90;;;;;;5135802;27;20523;-90
2020/12/10 12:42:31;;;;;;;48.27;23.93;;;6.00;99.90;;;;;;5128005;28;20488;-90
2020/12/10 12:44:59;;;;;;;49.97;24.40;;;6.00;99.90;;;;;;5145821;27;20558;-90
2020/12/10 12:47:26;;;;;;;51.50;24.60;;;6.10;99.90;;;;;;5134747;27;20452;-90
2020/12/10 12:49:52;;;;;;;46.40;24.37;;;6.00;99.90;;;;;;5151521;27;20467;-89
2020/12/10 12:52:18;;;;;;;40.37;22.27;;;6.10;99.90;;;;;;5156243;27;20439;-90
2020/12/10 12:54:46;;;;;;;40.97;22.67;;;6.10;99.90;;;;;;5142062;27;20480;-90
2020/12/10 12:57:12;;;;;;;40.43;21.23;;;5.90;99.90;;;;;;5135479;28;20460;-89
2020/12/10 12:59:38;;;;;;;40.93;21.43;;;5.90;99.90;;;;;;5143991;27;20447;-90
2020/12/10 13:02:06;;;;;;;36.77;19.47;;;5.90;99.90;;;;;;5155592;27;20562;-91
2020/12/10 13:04:32;;;;;;;40.47;20.33;;;5.80;99.90;;;;;;5143336;27;20459;-90
2020/12/10 13:07:01;;;;;;;38.73;19.73;;;5.90;99.90;;;;;;5135603;27;20511;-91
2020/12/10 13:09:28;;;;;;;38.87;21.40;;;6.00;99.90;;;;;;5154163;27;20462;-90
2020/12/10 13:11:57;;;;;;;37.60;21.27;;;6.00;99.90;;;;;;5136721;27;20454;-89
2020/12/10 13:14:24;;;;;;;37.83;21.20;;;6.10;99.90;;;;;;5135093;28;20482;-90
2020/12/10 13:16:51;;;;;;;40.80;21.57;;;6.10;99.90;;;;;;5135806;28;20432;-90
2020/12/10 13:19:17;;;;;;;37.70;20.20;;;6.10;99.90;;;;;;5134962;28;20456;-91
2020/12/10 13:21:46;;;;;;;41.67;21.47;;;6.00;99.90;;;;;;5135060;28;20530;-90
2020/12/10 13:24:13;;;;;;;40.90;22.03;;;6.10;99.90;;;;;;5130688;28;20444;-90